Accueil
METAR-TAF:

METAR-TAF

Aéroports :

Kütahya, Turquie

latitude: 39-06-41N, longitude: 30-07-48E, altitude: 1013 m

Observation

Le bulletin a été fait il y a 4 heures et 46 minutes, à 05:50 UTC
Vent calme
Température 18°C
Humidité 73%
Pression 1014 hPa
Visibilité 10 km ou plus
pas de nuages en-dessous de 1500 mètres et pas de cumulonimbus.

METAR: LTBZ 160550Z 00000KT CAVOK 18/13 Q1014

Heure: 13:36 (10:36 UTC)

Prévision

Le bulletin a été fait il y a 2 heures et 56 minutes, à 07:40 UTC
Prévision valable du 16 à 09 UTC au 16 à 18 UTC
Vent 2 kt de direction variable
Visibilité 10 km ou plus
pas de nuages en-dessous de 1500 mètres et pas de cumulonimbus.
Temporairement
du 16 à 13 UTC au 16 à 17 UTC
Vent 12 kt de nord/nord-est

TAF: LTBZ 160740Z 1609/1618 VRB02KT CAVOK TEMPO 1613/1617 02012KT

Observations et prévisions météorologiques de plus de 4000 aéroports (messages METAR et TAF).

Les stations disponibles sont représentées par des disques jaunes et rouges sur la carte.

Passer la souris dessus pour voir le nom de la station.

Cliquer dessus pour voir les observations et prévisions météorologiques.

Pour changer de carte: cliquez sur les boutons verts avec une croix noire pour zoomer, sur le bouton vert avec un tiret pour effectuer un zoom arrière, ou sur les flèches vertes pour les cartes adjacentes.


METAR-TAF: